الصفحة الرئيسية
METAR-TAF:

METAR-TAF

مطار :

Saint Croix, جزر فيرجين الأمريكية

دائرة عرض: 17-42N, خط طول: 064-48W, ارتفاع: 20 متر

مراقبة الطقس الحالي

تاريخ ووقت الإصدار 28 دقيقة قبل الساعة 14:53UTC
ريح 9 عقدة من الشرق/الجنوب الشرقي
درجة الحرارة
ضغط 1016 hPa
الرؤية: 16.1 كم
غيوم متفرقة على ارتفاع 2000 قدم
غيوم متفرقة على ارتفاع 3500 قدم

METAR: TISX 251453Z 12009KT 10SM SCT020 SCT035 A3001

زمن: 11:21 (15:21 UTC)

توقعات

تاريخ ووقت الإصدار 4ساعات و 1 دقيقة قبل الساعة 11:20UTC
التوقعات صالحة من25 الساعة 12 UTC إلى 26 الساعة 12 UTC
ريح 7 عقدة من الشرق
الرؤية: 9.7 كم
غيوم متفرقة على ارتفاع 2400 قدم
العجاج, زخات في الجوار
من 25 الساعة 1300 UTC
ريح 12 عقدة من الشرق/الجنوب الشرقي
الرؤية: 10 كم
غيوم متفرقة على ارتفاع 2500 قدم
غيوم مفككة على ارتفاع 5000 قدم
زخات في الجوار
من 25 الساعة 2100 UTC
ريح 7 عقدة من الشرق/الشمال الشرقي
الرؤية: 10 كم
غيوم متفرقة على ارتفاع 3000 قدم
غيوم متفرقة على ارتفاع 5000 قدم
زخات في الجوار,

TAF: TISX 251120Z 2512/2612 08007KT 6SM HZ VCSH SCT024 FM251300 11012KT P6SM VCSH SCT025 BKN050 FM252100 07007KT P6SM VCSH SCT030 SCT050

أرصاد الطقس والتوقعات من أكثر من 4000 مطار (تقارير الطقس للمطار METAR والتنبؤ بالطقس بالمطارTAF).

المحطات المتاحة هي النقط الصفراء والحمراء على الخريطة.

حرك المؤشر فوق النقطة لمعرفة اسم المحطة.

ثم انقر لمعرفة أرصاد وتوقعات الطقس.

لتغيير الخارطة: اضغط على الأزرار الخضراء مع رمز الصليب الأسود للتكبير. على الزر الأخضر مع شرطة للتصغير، أو على الأسهم الخضراء للخرائط المجاورة.


METAR-TAF: